createdAt,value
2023-03-16T00:02:05.831Z,31.40
2023-03-16T00:04:37.904Z,39.60
2023-03-16T00:07:06.444Z,34.00
2023-03-16T00:09:34.625Z,36.80
2023-03-16T00:12:03.944Z,30.00
2023-03-16T00:14:32.230Z,31.80
2023-03-16T00:17:00.506Z,29.00
2023-03-16T00:19:28.550Z,32.20
2023-03-16T00:21:58.085Z,31.20
2023-03-16T00:24:26.166Z,35.40
2023-03-16T00:26:55.066Z,27.00
2023-03-16T00:29:23.858Z,33.40
2023-03-16T00:31:52.615Z,33.40
2023-03-16T00:34:20.825Z,29.50
2023-03-16T00:36:48.948Z,30.80
2023-03-16T00:39:18.542Z,30.50
2023-03-16T00:41:48.531Z,32.25
2023-03-16T00:44:16.662Z,28.50
2023-03-16T00:46:44.782Z,25.25
2023-03-16T00:49:12.856Z,28.75
2023-03-16T00:51:46.110Z,28.75
2023-03-16T00:54:14.313Z,27.25
2023-03-16T00:56:44.479Z,30.25
2023-03-16T00:59:13.214Z,30.00
2023-03-16T01:01:42.093Z,27.00
2023-03-16T01:04:11.094Z,31.50
2023-03-16T01:06:39.971Z,30.00
2023-03-16T01:09:08.647Z,28.75
2023-03-16T01:11:36.847Z,26.75
2023-03-16T01:14:07.017Z,26.60
2023-03-16T01:16:35.199Z,25.25
2023-03-16T01:19:03.374Z,26.00
2023-03-16T01:21:33.838Z,13.50
2023-03-16T01:24:02.023Z,25.00
2023-03-16T01:26:30.191Z,23.25
2023-03-16T01:28:58.494Z,23.75
2023-03-16T01:31:29.410Z,23.50
2023-03-16T01:33:58.122Z,25.75
2023-03-16T01:36:29.622Z,18.25
2023-03-16T01:39:02.468Z,26.75
2023-03-16T01:41:37.963Z,17.50
2023-03-16T01:44:06.339Z,9.00
2023-03-16T01:46:36.713Z,19.00
2023-03-16T01:49:09.485Z,21.50
2023-03-16T01:51:43.346Z,18.50
2023-03-16T01:54:15.853Z,25.00
2023-03-16T01:56:46.753Z,21.25
2023-03-16T01:59:17.695Z,21.25
2023-03-16T02:01:49.363Z,25.00
2023-03-16T02:04:25.159Z,18.00
2023-03-16T02:06:57.907Z,16.00
2023-03-16T02:09:26.774Z,16.50
2023-03-16T02:11:56.422Z,22.00
2023-03-16T02:14:27.019Z,19.50
2023-03-16T02:16:57.902Z,21.50
2023-03-16T02:19:31.664Z,19.00
2023-03-16T02:22:02.923Z,22.75
2023-03-16T02:24:32.616Z,19.00
2023-03-16T02:27:04.689Z,20.00
2023-03-16T02:30:00.110Z,20.00
2023-03-16T02:32:34.781Z,22.50
2023-03-16T02:35:03.962Z,16.25
2023-03-16T02:37:34.072Z,20.50
2023-03-16T02:40:02.560Z,19.75
2023-03-16T02:42:31.701Z,14.50
2023-03-16T02:45:03.874Z,17.50
2023-03-16T02:47:41.731Z,14.75
2023-03-16T02:50:10.740Z,22.50
2023-03-16T02:52:39.726Z,17.00
2023-03-16T02:55:08.758Z,13.50
2023-03-16T02:57:37.822Z,20.50
2023-03-16T03:00:17.468Z,19.50
2023-03-16T03:02:49.548Z,20.75
2023-03-16T03:05:17.804Z,15.75
2023-03-16T03:07:46.031Z,20.25
2023-03-16T03:10:14.748Z,20.00
2023-03-16T03:12:43.020Z,18.25
2023-03-16T03:15:12.046Z,16.75
2023-03-16T03:17:52.750Z,17.75
2023-03-16T03:20:22.178Z,22.25
2023-03-16T03:22:52.695Z,21.75
2023-03-16T03:25:22.065Z,18.25
2023-03-16T03:27:51.753Z,20.75
2023-03-16T03:30:22.680Z,18.50
2023-03-16T03:32:53.117Z,20.25
2023-03-16T03:35:23.119Z,19.25
2023-03-16T03:37:54.441Z,17.25
2023-03-16T03:40:23.258Z,19.75
2023-03-16T03:42:58.247Z,20.50
2023-03-16T03:45:27.495Z,16.25
2023-03-16T03:47:57.381Z,21.75
2023-03-16T03:50:27.163Z,22.75
2023-03-16T03:53:05.135Z,20.25
2023-03-16T03:55:39.700Z,17.00
2023-03-16T03:58:07.780Z,19.25
2023-03-16T04:00:36.729Z,16.75
2023-03-16T04:03:06.628Z,17.75
2023-03-16T04:05:43.374Z,17.00
2023-03-16T04:08:12.967Z,18.00
2023-03-16T04:10:41.253Z,16.25
2023-03-16T04:13:09.716Z,17.75
2023-03-16T04:15:39.342Z,17.75
2023-03-16T04:18:30.327Z,8.00
2023-03-16T04:20:58.764Z,19.25
2023-03-16T04:23:27.604Z,12.25
2023-03-16T04:25:56.671Z,16.00
2023-03-16T04:28:26.565Z,19.00
2023-03-16T04:30:55.255Z,13.50
2023-03-16T04:33:32.492Z,16.50
2023-03-16T04:36:02.746Z,14.50
2023-03-16T04:38:34.424Z,14.00
2023-03-16T04:41:04.837Z,13.25
2023-03-16T04:43:37.300Z,12.25
2023-03-16T04:46:12.103Z,20.25
2023-03-16T04:48:42.150Z,19.25
2023-03-16T04:51:11.022Z,13.75
2023-03-16T04:53:44.947Z,17.00
2023-03-16T04:56:25.567Z,19.25
2023-03-16T04:59:00.264Z,14.50
2023-03-16T05:01:33.150Z,12.50
2023-03-16T05:04:05.385Z,14.25
2023-03-16T05:06:36.961Z,10.75
2023-03-16T05:09:06.295Z,13.25
2023-03-16T05:11:37.453Z,16.00
2023-03-16T05:14:09.242Z,14.50
2023-03-16T05:16:50.022Z,14.00
2023-03-16T05:19:20.046Z,13.25
2023-03-16T05:21:48.348Z,10.25
2023-03-16T05:24:17.623Z,13.25
2023-03-16T05:26:45.960Z,18.00
2023-03-16T05:29:16.992Z,12.00
2023-03-16T05:31:47.982Z,16.00
2023-03-16T05:34:21.335Z,13.75
2023-03-16T05:36:49.954Z,16.25
2023-03-16T05:39:19.389Z,16.50
2023-03-16T05:41:49.639Z,13.75
2023-03-16T05:44:47.065Z,15.25
2023-03-16T05:47:41.910Z,13.00
2023-03-16T05:50:12.681Z,13.00
2023-03-16T05:52:44.727Z,16.50
2023-03-16T05:55:19.976Z,16.50
2023-03-16T05:57:53.969Z,15.00
2023-03-16T06:00:23.012Z,18.50
2023-03-16T06:03:01.672Z,16.00
2023-03-16T06:05:36.040Z,22.00
2023-03-16T06:08:05.412Z,16.25
2023-03-16T06:10:34.295Z,16.25
2023-03-16T06:13:02.422Z,17.00
2023-03-16T06:15:31.239Z,16.25
2023-03-16T06:18:02.697Z,18.50
2023-03-16T06:20:31.095Z,18.50
2023-03-16T06:23:01.084Z,17.25
2023-03-16T06:25:29.362Z,16.75
2023-03-16T06:27:57.604Z,19.50
2023-03-16T06:30:26.823Z,18.25
2023-03-16T06:32:55.394Z,17.00
2023-03-16T06:35:23.626Z,17.50
2023-03-16T06:38:08.064Z,18.25
2023-03-16T06:40:47.067Z,20.00
2023-03-16T06:43:15.182Z,20.25
2023-03-16T06:45:45.359Z,18.75
2023-03-16T06:48:13.570Z,18.75
2023-03-16T06:50:41.852Z,19.75
2023-03-16T06:53:11.628Z,18.50
2023-03-16T06:55:40.646Z,20.00
2023-03-16T06:58:08.871Z,25.75
2023-03-16T07:00:37.109Z,18.75
2023-03-16T07:03:05.456Z,20.50
2023-03-16T07:05:34.829Z,22.75
2023-03-16T07:08:05.142Z,20.00
2023-03-16T07:10:35.006Z,21.25
2023-03-16T07:13:04.306Z,17.00
2023-03-16T07:15:32.535Z,15.75
2023-03-16T07:18:01.935Z,25.75
2023-03-16T07:20:31.668Z,24.25
2023-03-16T07:23:01.509Z,28.20
2023-03-16T07:25:30.278Z,31.20
2023-03-16T07:27:59.827Z,22.40
2023-03-16T07:30:33.977Z,20.00
2023-03-16T07:33:03.055Z,22.75
2023-03-16T07:35:33.875Z,26.75
2023-03-16T07:38:02.039Z,22.75
2023-03-16T07:40:30.850Z,21.75
2023-03-16T07:43:08.549Z,22.50
2023-03-16T07:45:41.067Z,16.00
2023-03-16T07:48:09.645Z,22.75
2023-03-16T07:50:48.487Z,20.75
2023-03-16T07:53:17.168Z,25.50
2023-03-16T07:55:49.262Z,20.75
2023-03-16T07:58:19.509Z,23.00
2023-03-16T08:00:50.325Z,22.50
2023-03-16T08:03:18.838Z,21.50
2023-03-16T08:05:48.106Z,16.50
2023-03-16T08:08:17.818Z,19.25
2023-03-16T08:10:48.933Z,14.75
2023-03-16T08:13:23.127Z,11.00
2023-03-16T08:15:58.504Z,19.00
2023-03-16T08:18:39.894Z,20.50
2023-03-16T08:21:08.652Z,16.75
2023-03-16T08:23:37.336Z,20.75
2023-03-16T08:26:08.925Z,20.75
2023-03-16T08:28:39.957Z,19.00
2023-03-16T08:31:12.438Z,20.25
2023-03-16T08:33:45.570Z,19.75
2023-03-16T08:36:17.498Z,14.00
2023-03-16T08:39:05.643Z,12.00
2023-03-16T08:41:40.901Z,12.00
2023-03-16T08:44:20.271Z,21.25
2023-03-16T08:46:48.660Z,20.25
2023-03-16T08:49:17.585Z,20.50
2023-03-16T08:51:46.818Z,21.00
2023-03-16T08:54:15.653Z,18.50
2023-03-16T08:56:44.743Z,20.25
2023-03-16T08:59:23.568Z,12.00
2023-03-16T09:01:59.410Z,20.50
2023-03-16T09:04:28.543Z,13.50
2023-03-16T09:07:08.475Z,20.75
2023-03-16T09:09:37.347Z,14.50
2023-03-16T09:12:06.223Z,16.50
2023-03-16T09:14:35.527Z,20.00
2023-03-16T09:17:05.308Z,19.50
2023-03-16T09:19:50.080Z,19.75
2023-03-16T09:22:19.934Z,21.00
2023-03-16T09:24:48.609Z,21.25
2023-03-16T09:27:16.911Z,17.50
2023-03-16T09:29:45.581Z,19.00
2023-03-16T09:32:15.630Z,23.00
2023-03-16T09:34:44.944Z,23.00
2023-03-16T09:37:13.158Z,20.00
2023-03-16T09:39:41.299Z,25.50
2023-03-16T09:42:15.812Z,20.75
2023-03-16T09:44:48.256Z,22.50
2023-03-16T09:47:18.506Z,17.75
2023-03-16T09:49:48.621Z,8.50
2023-03-16T09:52:23.942Z,16.75
2023-03-16T09:54:57.857Z,22.25
2023-03-16T09:57:29.123Z,22.25
2023-03-16T10:00:00.598Z,8.00
2023-03-16T10:02:48.067Z,18.50
2023-03-16T10:05:17.447Z,16.00
2023-03-16T10:07:52.422Z,18.00
2023-03-16T10:10:28.603Z,15.75
2023-03-16T10:13:00.976Z,18.00
2023-03-16T10:15:31.025Z,15.50
2023-03-16T10:18:03.176Z,19.00
2023-03-16T10:20:34.331Z,18.75
2023-03-16T10:23:09.771Z,15.00
2023-03-16T10:25:43.056Z,20.50
2023-03-16T10:28:12.643Z,18.75
2023-03-16T10:30:42.370Z,21.75
2023-03-16T10:33:20.098Z,15.00
2023-03-16T10:35:49.726Z,13.00
2023-03-16T10:38:28.517Z,12.75
2023-03-16T10:40:58.109Z,21.00
2023-03-16T10:43:26.565Z,19.50
2023-03-16T10:45:59.719Z,23.00
2023-03-16T10:48:29.636Z,21.00
2023-03-16T10:51:00.095Z,18.75
2023-03-16T10:53:30.771Z,18.00
2023-03-16T10:56:00.091Z,25.75
2023-03-16T10:58:31.258Z,25.25
2023-03-16T11:01:00.181Z,19.50
2023-03-16T11:03:32.623Z,23.25
2023-03-16T11:06:02.435Z,21.75
2023-03-16T11:08:34.044Z,21.00
2023-03-16T11:11:09.720Z,21.00
2023-03-16T11:13:39.282Z,24.75
2023-03-16T11:16:16.966Z,22.50
2023-03-16T11:18:47.827Z,22.00
2023-03-16T11:21:18.413Z,21.50
2023-03-16T11:23:50.267Z,18.25
2023-03-16T11:26:22.174Z,22.00
2023-03-16T11:28:55.114Z,23.75
2023-03-16T11:31:27.787Z,20.75
2023-03-16T11:33:57.709Z,15.50
2023-03-16T11:36:37.865Z,19.00
2023-03-16T11:39:11.450Z,19.00
2023-03-16T11:41:46.150Z,16.25
2023-03-16T11:44:18.132Z,19.75
2023-03-16T11:46:49.375Z,18.00
2023-03-16T11:49:32.780Z,15.50
2023-03-16T11:52:05.324Z,15.50
2023-03-16T11:54:41.811Z,23.00
2023-03-16T11:57:15.791Z,24.00
2023-03-16T12:00:01.503Z,21.00
2023-03-16T12:02:40.671Z,22.50
2023-03-16T12:05:40.085Z,18.50
2023-03-16T12:08:24.784Z,15.25
2023-03-16T12:10:56.845Z,20.75
2023-03-16T12:13:33.258Z,18.50
2023-03-16T12:16:05.912Z,20.50
2023-03-16T12:18:37.667Z,12.25
2023-03-16T12:21:08.345Z,20.75
2023-03-16T12:23:40.602Z,17.25
2023-03-16T12:26:09.216Z,21.50
2023-03-16T12:28:37.958Z,21.50
2023-03-16T12:31:12.363Z,24.75
2023-03-16T12:33:47.888Z,17.50
2023-03-16T12:36:35.274Z,13.50
2023-03-16T12:39:07.077Z,15.25
2023-03-16T12:41:38.965Z,20.75
2023-03-16T12:44:13.430Z,19.50
2023-03-16T12:46:47.980Z,16.50
2023-03-16T12:49:16.485Z,22.25
2023-03-16T12:51:45.676Z,25.00
2023-03-16T12:54:25.528Z,21.00
2023-03-16T12:56:56.240Z,24.25
2023-03-16T12:59:25.860Z,21.00
2023-03-16T13:01:57.906Z,17.75
2023-03-16T13:04:32.575Z,25.50
2023-03-16T13:07:05.310Z,22.50
2023-03-16T13:09:37.086Z,23.50
2023-03-16T13:12:06.797Z,20.00
2023-03-16T13:14:38.351Z,21.00
2023-03-16T13:17:08.999Z,22.50
2023-03-16T13:19:40.071Z,23.50
2023-03-16T13:22:21.143Z,23.25
2023-03-16T13:24:54.793Z,20.50
2023-03-16T13:27:25.367Z,24.25
2023-03-16T13:29:54.613Z,23.00
2023-03-16T13:32:22.968Z,24.50
2023-03-16T13:34:52.038Z,27.50
2023-03-16T13:37:21.494Z,22.00
2023-03-16T13:39:55.588Z,22.25
2023-03-16T13:42:26.555Z,24.25
2023-03-16T13:44:56.001Z,20.00
2023-03-16T13:47:24.606Z,28.25
2023-03-16T13:49:56.850Z,23.00
2023-03-16T13:52:29.596Z,22.50
2023-03-16T13:55:27.816Z,22.25
2023-03-16T13:57:56.067Z,22.00
2023-03-16T14:00:25.789Z,20.25
2023-03-16T14:02:55.180Z,25.50
2023-03-16T14:05:24.834Z,24.75
2023-03-16T14:07:53.789Z,17.00
2023-03-16T14:10:23.108Z,13.50
2023-03-16T14:12:57.149Z,23.00
2023-03-16T14:15:27.661Z,23.00
2023-03-16T14:18:05.397Z,24.50
2023-03-16T14:20:40.918Z,25.00
2023-03-16T14:23:23.651Z,25.50
2023-03-16T14:25:53.747Z,22.25
2023-03-16T14:28:32.269Z,17.75
2023-03-16T14:31:06.308Z,24.25
2023-03-16T14:33:36.333Z,22.25
2023-03-16T14:36:09.317Z,21.00
2023-03-16T14:38:38.864Z,22.25
2023-03-16T14:41:17.302Z,22.50
2023-03-16T14:43:49.325Z,12.00
2023-03-16T14:46:21.813Z,19.00
2023-03-16T14:48:50.816Z,22.75
2023-03-16T14:51:19.201Z,24.50
2023-03-16T14:53:47.334Z,22.00
2023-03-16T14:56:15.504Z,20.00
2023-03-16T14:58:43.676Z,22.25
2023-03-16T15:01:18.039Z,22.25
2023-03-16T15:03:46.877Z,24.75
2023-03-16T15:06:15.368Z,25.75
2023-03-16T15:08:45.258Z,23.50
2023-03-16T15:11:13.462Z,24.25
2023-03-16T15:14:03.929Z,22.50
2023-03-16T15:16:34.313Z,27.60
2023-03-16T15:19:02.607Z,25.00
2023-03-16T15:21:31.172Z,24.50
2023-03-16T15:23:59.814Z,22.25
2023-03-16T15:26:29.382Z,1.50
2023-03-16T15:28:58.389Z,24.25
2023-03-16T15:31:26.998Z,23.50
2023-03-16T15:33:56.622Z,20.00
2023-03-16T15:36:25.133Z,25.50
2023-03-16T15:38:55.077Z,23.00
2023-03-16T15:41:24.869Z,20.00
2023-03-16T15:43:53.213Z,21.75
2023-03-16T15:46:21.394Z,25.50
2023-03-16T15:48:49.536Z,9.50
2023-03-16T15:51:22.030Z,25.00
2023-03-16T15:53:51.103Z,21.00
2023-03-16T15:56:22.142Z,28.50
2023-03-16T15:58:50.845Z,30.40
2023-03-16T16:01:21.739Z,32.20
2023-03-16T16:03:52.550Z,32.20
2023-03-16T16:06:22.337Z,30.80
2023-03-16T16:08:50.845Z,41.40
2023-03-16T16:11:20.805Z,39.60
2023-03-16T16:13:49.093Z,46.60
2023-03-16T16:16:18.569Z,32.80
2023-03-16T16:18:47.564Z,38.40
2023-03-16T16:21:17.134Z,42.20
2023-03-16T16:23:46.773Z,42.40
2023-03-16T16:26:21.715Z,38.80
2023-03-16T16:28:49.889Z,48.20
2023-03-16T16:31:18.540Z,42.60
2023-03-16T16:33:47.115Z,43.80
2023-03-16T16:36:17.734Z,40.00
2023-03-16T16:38:47.481Z,44.60
2023-03-16T16:41:24.350Z,45.80
2023-03-16T16:43:53.652Z,28.80
2023-03-16T16:46:24.112Z,39.40
2023-03-16T16:48:53.605Z,45.80
2023-03-16T16:51:23.368Z,40.60
2023-03-16T16:53:53.314Z,36.00
2023-03-16T16:56:24.832Z,39.00
2023-03-16T16:58:56.478Z,44.20
2023-03-16T17:01:29.885Z,36.00
2023-03-16T17:03:58.359Z,30.60
2023-03-16T17:06:27.988Z,34.80
2023-03-16T17:08:57.678Z,38.60
2023-03-16T17:11:27.189Z,36.60
2023-03-16T17:13:57.106Z,45.40
2023-03-16T17:16:26.819Z,43.20
2023-03-16T17:18:55.374Z,43.40
2023-03-16T17:21:25.313Z,44.80
2023-03-16T17:23:53.799Z,43.40
2023-03-16T17:26:25.489Z,45.00
2023-03-16T17:28:56.961Z,36.00
2023-03-16T17:31:31.184Z,45.20
2023-03-16T17:33:59.696Z,23.00
2023-03-16T17:36:28.878Z,48.00
2023-03-16T17:38:58.165Z,21.60
2023-03-16T17:41:31.122Z,42.40
2023-03-16T17:44:04.045Z,29.00
2023-03-16T17:46:32.953Z,21.80
2023-03-16T17:49:02.114Z,28.50
2023-03-16T17:51:32.432Z,34.40
2023-03-16T17:54:00.559Z,31.00
2023-03-16T17:56:30.184Z,21.50
2023-03-16T17:59:07.852Z,38.40
2023-03-16T18:01:39.099Z,36.20
2023-03-16T18:04:09.716Z,31.50
2023-03-16T18:06:38.709Z,38.80
2023-03-16T18:09:06.826Z,33.20
2023-03-16T18:11:40.036Z,34.00
2023-03-16T18:14:08.868Z,40.00
2023-03-16T18:16:37.556Z,32.80
2023-03-16T18:19:07.009Z,33.80
2023-03-16T18:21:36.491Z,38.40
2023-03-16T18:24:05.068Z,32.20
2023-03-16T18:26:33.262Z,36.20
2023-03-16T18:29:03.767Z,35.80
2023-03-16T18:31:32.099Z,26.40
2023-03-16T18:34:01.066Z,32.80
2023-03-16T18:36:30.801Z,16.40
2023-03-16T18:39:00.125Z,21.40
2023-03-16T18:41:29.615Z,30.40
2023-03-16T18:43:59.383Z,32.60
2023-03-16T18:46:30.339Z,25.40
2023-03-16T18:48:59.822Z,25.80
2023-03-16T18:51:28.261Z,25.00
2023-03-16T18:53:56.937Z,34.80
2023-03-16T18:56:27.440Z,36.40
2023-03-16T18:58:56.797Z,28.00
2023-03-16T19:01:26.145Z,17.80
2023-03-16T19:03:56.425Z,31.80
2023-03-16T19:06:27.446Z,32.00
2023-03-16T19:08:56.218Z,35.20
2023-03-16T19:11:24.468Z,30.20
2023-03-16T19:13:54.727Z,30.40
2023-03-16T19:16:23.362Z,40.20
2023-03-16T19:18:52.183Z,36.80
2023-03-16T19:21:23.222Z,8.40
2023-03-16T19:23:55.597Z,28.40
2023-03-16T19:26:23.787Z,28.00
2023-03-16T19:28:52.475Z,32.40
2023-03-16T19:31:22.886Z,37.00
2023-03-16T19:33:52.769Z,34.60
2023-03-16T19:36:23.623Z,26.20
2023-03-16T19:38:52.271Z,30.20
2023-03-16T19:41:26.947Z,40.80
2023-03-16T19:43:56.627Z,35.40
2023-03-16T19:46:28.741Z,27.20
2023-03-16T19:48:57.362Z,34.80
2023-03-16T19:51:29.284Z,42.00
2023-03-16T19:53:58.795Z,41.00
2023-03-16T19:56:28.732Z,32.60
2023-03-16T19:58:57.151Z,35.00
2023-03-16T20:01:30.269Z,31.80
2023-03-16T20:04:00.349Z,24.20
2023-03-16T20:06:29.962Z,21.80
2023-03-16T20:08:58.185Z,28.20
2023-03-16T20:11:28.704Z,25.20
2023-03-16T20:13:57.342Z,32.40
2023-03-16T20:16:26.837Z,12.20
2023-03-16T20:18:56.088Z,30.00
2023-03-16T20:21:24.724Z,19.00
2023-03-16T20:23:54.591Z,21.80
2023-03-16T20:26:24.455Z,10.40
2023-03-16T20:28:53.267Z,17.40
2023-03-16T20:31:23.012Z,22.00
2023-03-16T20:33:52.148Z,13.80
2023-03-16T20:36:21.218Z,23.60
2023-03-16T20:38:49.765Z,20.20
2023-03-16T20:41:22.931Z,18.00
2023-03-16T20:43:51.950Z,17.60
2023-03-16T20:46:22.252Z,13.40
2023-03-16T20:48:50.422Z,24.20
2023-03-16T20:51:18.580Z,18.00
2023-03-16T20:53:47.178Z,18.40
2023-03-16T20:56:16.592Z,18.00
2023-03-16T20:58:48.108Z,6.25
2023-03-16T21:01:18.959Z,15.00
2023-03-16T21:03:48.822Z,15.50
2023-03-16T21:06:23.842Z,15.75
2023-03-16T21:08:52.732Z,19.00
2023-03-16T21:11:22.971Z,14.00
2023-03-16T21:13:53.039Z,18.00
2023-03-16T21:16:21.850Z,3.75
2023-03-16T21:18:50.336Z,15.75
2023-03-16T21:21:18.980Z,5.75
2023-03-16T21:23:48.589Z,21.50
2023-03-16T21:26:17.818Z,9.00
2023-03-16T21:28:49.007Z,19.50
2023-03-16T21:31:19.821Z,14.50
2023-03-16T21:33:49.704Z,19.25
2023-03-16T21:36:18.628Z,17.50
2023-03-16T21:38:47.570Z,15.00
2023-03-16T21:41:16.850Z,9.00
2023-03-16T21:43:45.103Z,11.00
2023-03-16T21:46:16.372Z,18.20
2023-03-16T21:48:46.608Z,15.25
2023-03-16T21:51:16.913Z,11.50
2023-03-16T21:53:45.319Z,13.00
2023-03-16T21:56:15.605Z,18.75
2023-03-16T21:58:43.915Z,16.00
2023-03-16T22:01:20.761Z,14.25
2023-03-16T22:03:53.399Z,15.25
2023-03-16T22:06:22.173Z,12.00
2023-03-16T22:08:51.386Z,14.00
2023-03-16T22:11:20.379Z,21.00
2023-03-16T22:13:48.523Z,12.00
2023-03-16T22:16:18.094Z,10.00
2023-03-16T22:18:47.309Z,9.00
2023-03-16T22:21:26.420Z,12.80
2023-03-16T22:23:54.747Z,9.20
2023-03-16T22:26:24.023Z,13.50
2023-03-16T22:28:52.674Z,12.60
2023-03-16T22:31:22.660Z,5.60
2023-03-16T22:33:51.334Z,10.75
2023-03-16T22:36:21.401Z,9.00
2023-03-16T22:38:54.497Z,13.00
2023-03-16T22:41:23.344Z,15.40
2023-03-16T22:43:51.492Z,14.20
2023-03-16T22:46:20.689Z,14.25
2023-03-16T22:48:48.915Z,12.00
2023-03-16T22:51:22.292Z,14.75
2023-03-16T22:53:53.145Z,13.50
2023-03-16T22:56:21.468Z,8.00
2023-03-16T22:58:50.896Z,12.00
2023-03-16T23:01:19.687Z,13.80
2023-03-16T23:03:48.493Z,13.00
2023-03-16T23:06:17.688Z,11.50
2023-03-16T23:08:45.804Z,9.00
2023-03-16T23:11:17.351Z,9.75
2023-03-16T23:13:45.545Z,15.00
2023-03-16T23:16:19.333Z,9.75
2023-03-16T23:18:48.216Z,8.00
2023-03-16T23:21:16.839Z,7.00
2023-03-16T23:23:56.997Z,15.00
2023-03-16T23:26:32.149Z,12.20
2023-03-16T23:29:00.457Z,10.20
2023-03-16T23:31:28.878Z,6.50
2023-03-16T23:33:57.476Z,9.50
2023-03-16T23:36:26.205Z,7.50
2023-03-16T23:38:54.510Z,13.00
2023-03-16T23:41:23.842Z,7.50
2023-03-16T23:43:53.896Z,6.40
2023-03-16T23:46:23.735Z,12.00
2023-03-16T23:48:53.519Z,12.60
2023-03-16T23:51:22.789Z,9.00
2023-03-16T23:53:50.904Z,9.00
2023-03-16T23:56:19.262Z,6.25
2023-03-16T23:58:47.370Z,9.50
